Tennessee — FM3908 — position and weather

sailwx.info

Track history (hours):
 
Tides and Currents Weather Stations Pressure Air Temp Water Temp Dewpoint Dewpoint Depression Visibility Wind Speed Wind Dir Waves Ship Positions

Tennessee

Last reported at 2015-Aug-01 04:33 UTC. Time now 2015-Aug-01 05:42 UTC.
Position N 43°23' E 004°48'.

Length 80 m; draft 0.3 m.

Type: Ship. MMSI: 227095770.

Date/timePositionNaut miles runAvg speedWind from/ knotsBaromVisibWave heightAir tempDewpointWater temp
2015-Aug-01 04:33N 43°23' E 004°48'0 0.0
2015-Aug-01 03:33N 43°23' E 004°48'0 0.0
2015-Aug-01 02:33N 43°23' E 004°48'0 0.0
2015-Aug-01 01:33N 43°23' E 004°48'0 0.0
2015-Aug-01 00:33N 43°23' E 004°48'0 0.0
2015-Jul-31 23:33N 43°23' E 004°48'0 0.0
2015-Jul-31 22:33N 43°23' E 004°48'0 0.0
2015-Jul-31 21:33N 43°23' E 004°48'0 0.0
2015-Jul-31 20:33N 43°23' E 004°48'0 0.0
2015-Jul-31 19:33N 43°23' E 004°48'5 4.9
2015-Jul-31 18:33N 43°27' E 004°45'9 9.2
2015-Jul-31 17:33N 43°36' E 004°39'10 3.5
2015-Jul-31 14:33N 43°39' E 004°26'0 0.0
2015-Jul-31 13:33N 43°39' E 004°26'0 0.0
2015-Jul-31 12:33N 43°39' E 004°26'0 0.0
2015-Jul-31 11:33N 43°39' E 004°26'0 0.0
2015-Jul-31 10:33N 43°39' E 004°26'0 0.0
2015-Jul-31 09:33N 43°39' E 004°26'0 0.0
2015-Jul-31 08:33N 43°39' E 004°26'0 0.0
2015-Jul-31 07:33N 43°39' E 004°26'0 0.0
2015-Jul-31 06:33N 43°39' E 004°26'0 0.0
2015-Jul-31 05:33N 43°39' E 004°26'0 0.0
2015-Jul-31 04:33N 43°39' E 004°26'0 0.0
2015-Jul-31 03:33N 43°39' E 004°26'0 0.0
2015-Jul-31 02:33N 43°39' E 004°26'0 0.0
2015-Jul-31 01:33N 43°39' E 004°26'0 0.0
2015-Jul-31 00:33N 43°39' E 004°26'0 0.0
2015-Jul-30 23:33N 43°39' E 004°26'0 0.0
2015-Jul-30 22:33N 43°39' E 004°26'0 0.0
2015-Jul-30 21:33N 43°39' E 004°26'0 0.0
2015-Jul-30 20:33N 43°39' E 004°26'0 0.0
2015-Jul-30 19:33N 43°39' E 004°26'8 3.4
2015-Jul-30 17:16N 43°37' E 004°15'26 0.5
2015-Jul-28 16:14N 43°24' E 003°43'0 0.0
2015-Jul-28 15:32N 43°24' E 003°43'0 0.0
2015-Jul-26 20:33N 43°24' E 003°43'0 0.0
2015-Jul-26 19:33N 43°24' E 003°43'0 0.0
2015-Jul-26 18:33N 43°24' E 003°43'0 0.0
2015-Jul-26 17:33N 43°24' E 003°43'0 0.0
2015-Jul-26 16:33N 43°24' E 003°43'0 0.0
2015-Jul-26 15:09N 43°24' E 003°43'0 0.0
2015-Jul-26 14:33N 43°24' E 003°43'0 0.0
2015-Jul-26 13:34N 43°24' E 003°43'0 0.0
2015-Jul-26 12:27N 43°24' E 003°43'3 3.0
2015-Jul-26 11:33N 43°26' E 003°46'3 2.9
2015-Jul-26 10:30N 43°28' E 003°49'29 1.4
2015-Jul-25 13:33N 43°39' E 004°27'  
Track history (hours):
 
Tides and Currents Weather Stations Pressure Air Temp Water Temp Dewpoint Dewpoint Depression Visibility Wind Speed Wind Dir Waves Ship Positions

Tennessee

Last reported at 2015-Aug-01 04:33 UTC. Time now 2015-Aug-01 05:42 UTC.
Position N 43°23' E 004°48'.

Length 80 m; draft 0.3 m.

Type: Ship. MMSI: 227095770.

Date/timePositionNaut miles runAvg speedWind from/ knotsBaromVisibWave heightAir tempDewpointWater temp
2015-Aug-01 04:33N 43°23' E 004°48'0 0.0
2015-Aug-01 03:33N 43°23' E 004°48'0 0.0
2015-Aug-01 02:33N 43°23' E 004°48'0 0.0
2015-Aug-01 01:33N 43°23' E 004°48'0 0.0
2015-Aug-01 00:33N 43°23' E 004°48'0 0.0
2015-Jul-31 23:33N 43°23' E 004°48'0 0.0
2015-Jul-31 22:33N 43°23' E 004°48'0 0.0
2015-Jul-31 21:33N 43°23' E 004°48'0 0.0
2015-Jul-31 20:33N 43°23' E 004°48'0 0.0
2015-Jul-31 19:33N 43°23' E 004°48'5 4.9
2015-Jul-31 18:33N 43°27' E 004°45'9 9.2
2015-Jul-31 17:33N 43°36' E 004°39'10 3.5
2015-Jul-31 14:33N 43°39' E 004°26'0 0.0
2015-Jul-31 13:33N 43°39' E 004°26'0 0.0
2015-Jul-31 12:33N 43°39' E 004°26'0 0.0
2015-Jul-31 11:33N 43°39' E 004°26'0 0.0
2015-Jul-31 10:33N 43°39' E 004°26'0 0.0
2015-Jul-31 09:33N 43°39' E 004°26'0 0.0
2015-Jul-31 08:33N 43°39' E 004°26'0 0.0
2015-Jul-31 07:33N 43°39' E 004°26'0 0.0
2015-Jul-31 06:33N 43°39' E 004°26'0 0.0
2015-Jul-31 05:33N 43°39' E 004°26'0 0.0
2015-Jul-31 04:33N 43°39' E 004°26'0 0.0
2015-Jul-31 03:33N 43°39' E 004°26'0 0.0
2015-Jul-31 02:33N 43°39' E 004°26'0 0.0
2015-Jul-31 01:33N 43°39' E 004°26'0 0.0
2015-Jul-31 00:33N 43°39' E 004°26'0 0.0
2015-Jul-30 23:33N 43°39' E 004°26'0 0.0
2015-Jul-30 22:33N 43°39' E 004°26'0 0.0
2015-Jul-30 21:33N 43°39' E 004°26'0 0.0
2015-Jul-30 20:33N 43°39' E 004°26'0 0.0
2015-Jul-30 19:33N 43°39' E 004°26'8 3.4
2015-Jul-30 17:16N 43°37' E 004°15'26 0.5
2015-Jul-28 16:14N 43°24' E 003°43'0 0.0
2015-Jul-28 15:32N 43°24' E 003°43'0 0.0
2015-Jul-26 20:33N 43°24' E 003°43'0 0.0
2015-Jul-26 19:33N 43°24' E 003°43'0 0.0
2015-Jul-26 18:33N 43°24' E 003°43'0 0.0
2015-Jul-26 17:33N 43°24' E 003°43'0 0.0
2015-Jul-26 16:33N 43°24' E 003°43'0 0.0
2015-Jul-26 15:09N 43°24' E 003°43'0 0.0
2015-Jul-26 14:33N 43°24' E 003°43'0 0.0
2015-Jul-26 13:34N 43°24' E 003°43'0 0.0
2015-Jul-26 12:27N 43°24' E 003°43'3 3.0
2015-Jul-26 11:33N 43°26' E 003°46'3 2.9
2015-Jul-26 10:30N 43°28' E 003°49'29 1.4
2015-Jul-25 13:33N 43°39' E 004°27'  

Dump ship's entire track history